createdAt,value
2018-04-24T00:00:01.625Z,4.30
2018-04-24T00:02:28.205Z,4.23
2018-04-24T00:04:55.132Z,5.67
2018-04-24T00:07:21.704Z,5.30
2018-04-24T00:09:48.700Z,5.23
2018-04-24T00:12:15.273Z,5.30
2018-04-24T00:14:41.996Z,5.73
2018-04-24T00:17:08.718Z,4.80
2018-04-24T00:19:35.313Z,4.50
2018-04-24T00:22:01.880Z,4.93
2018-04-24T00:24:28.530Z,5.33
2018-04-24T00:26:55.488Z,5.17
2018-04-24T00:29:22.065Z,4.70
2018-04-24T00:31:49.013Z,4.50
2018-04-24T00:34:15.625Z,5.20
2018-04-24T00:36:42.318Z,5.40
2018-04-24T00:39:09.045Z,5.60
2018-04-24T00:41:35.636Z,4.70
2018-04-24T00:44:02.224Z,4.90
2018-04-24T00:46:28.821Z,5.23
2018-04-24T00:48:55.388Z,5.10
2018-04-24T00:51:21.960Z,5.20
2018-04-24T00:53:48.573Z,4.63
2018-04-24T00:56:15.180Z,4.80
2018-04-24T00:58:41.940Z,4.83
2018-04-24T01:01:09.033Z,5.43
2018-04-24T01:03:35.641Z,4.80
2018-04-24T01:06:02.311Z,5.87
2018-04-24T01:08:29.336Z,6.13
2018-04-24T01:10:55.892Z,5.53
2018-04-24T01:13:22.463Z,4.90
2018-04-24T01:15:49.425Z,5.80
2018-04-24T01:18:16.341Z,5.10
2018-04-24T01:20:43.003Z,6.10
2018-04-24T01:23:09.842Z,6.07
2018-04-24T01:25:36.793Z,4.80
2018-04-24T01:28:03.379Z,5.30
2018-04-24T01:30:30.047Z,5.17
2018-04-24T01:32:56.620Z,4.87
2018-04-24T01:35:23.189Z,5.40
2018-04-24T01:37:49.769Z,5.43
2018-04-24T01:40:16.311Z,5.20
2018-04-24T01:42:43.002Z,5.03
2018-04-24T01:45:09.693Z,5.20
2018-04-24T01:47:36.650Z,5.10
2018-04-24T01:50:03.304Z,5.53
2018-04-24T01:52:29.950Z,5.17
2018-04-24T01:54:56.539Z,4.60
2018-04-24T01:57:23.471Z,5.40
2018-04-24T01:59:50.048Z,4.33
2018-04-24T02:02:16.968Z,4.57
2018-04-24T02:04:43.604Z,5.00
2018-04-24T02:07:10.340Z,4.70
2018-04-24T02:09:37.365Z,4.50
2018-04-24T02:12:04.017Z,4.30
2018-04-24T02:14:30.617Z,4.70
2018-04-24T02:16:57.156Z,5.30
2018-04-24T02:19:23.757Z,5.27
2018-04-24T02:21:57.651Z,4.50
2018-04-24T02:24:24.256Z,4.07
2018-04-24T02:26:50.838Z,4.50
2018-04-24T02:29:17.384Z,4.23
2018-04-24T02:31:44.016Z,4.20
2018-04-24T02:34:10.793Z,4.50
2018-04-24T02:36:37.448Z,3.87
2018-04-24T02:39:05.160Z,4.50
2018-04-24T02:41:31.841Z,4.40
2018-04-24T02:43:58.497Z,4.10
2018-04-24T02:46:25.107Z,4.73
2018-04-24T02:48:51.676Z,4.80
2018-04-24T02:51:18.239Z,4.70
2018-04-24T02:53:44.914Z,4.50
2018-04-24T02:56:11.736Z,5.07
2018-04-24T02:58:38.449Z,4.07
2018-04-24T03:01:05.041Z,4.30
2018-04-24T03:03:31.640Z,4.17
2018-04-24T03:05:58.270Z,4.40
2018-04-24T03:08:25.232Z,4.10
2018-04-24T03:10:52.184Z,4.57
2018-04-24T03:13:19.084Z,4.20
2018-04-24T03:15:45.730Z,5.10
2018-04-24T03:18:12.436Z,5.20
2018-04-24T03:20:39.542Z,4.83
2018-04-24T03:23:06.595Z,5.20
2018-04-24T03:25:33.184Z,4.50
2018-04-24T03:27:59.755Z,4.90
2018-04-24T03:30:26.708Z,4.70
2018-04-24T03:32:53.284Z,4.53
2018-04-24T03:35:19.845Z,4.37
2018-04-24T03:37:46.429Z,4.90
2018-04-24T03:40:13.063Z,5.70
2018-04-24T03:42:39.721Z,6.10
2018-04-24T03:45:06.304Z,5.30
2018-04-24T03:47:33.264Z,5.90
2018-04-24T03:50:00.281Z,4.60
2018-04-24T03:52:27.277Z,4.90
2018-04-24T03:54:54.257Z,5.60
2018-04-24T03:57:20.902Z,5.40
2018-04-24T03:59:47.432Z,6.20
2018-04-24T04:02:14.078Z,5.37
2018-04-24T04:04:41.159Z,4.90
2018-04-24T04:07:07.826Z,5.43
2018-04-24T04:09:34.445Z,5.53
2018-04-24T04:12:01.358Z,5.83
2018-04-24T04:14:28.022Z,5.90
2018-04-24T04:16:54.668Z,5.37
2018-04-24T04:19:33.490Z,5.30
2018-04-24T04:22:13.240Z,5.17
2018-04-24T04:24:48.514Z,5.13
2018-04-24T04:27:15.157Z,4.97
2018-04-24T04:29:41.853Z,5.77
2018-04-24T04:32:08.636Z,4.60
2018-04-24T04:34:35.273Z,6.77
2018-04-24T04:37:01.833Z,4.90
2018-04-24T04:39:28.917Z,5.60
2018-04-24T04:41:55.505Z,5.80
2018-04-24T04:44:22.417Z,5.30
2018-04-24T04:46:48.992Z,5.90
2018-04-24T04:49:15.604Z,6.00
2018-04-24T04:51:42.232Z,5.90
2018-04-24T04:54:09.035Z,6.47
2018-04-24T04:56:35.667Z,5.20
2018-04-24T04:59:02.209Z,5.47
2018-04-24T05:01:28.844Z,5.53
2018-04-24T05:03:55.444Z,5.80
2018-04-24T05:06:21.993Z,6.30
2018-04-24T05:08:48.948Z,5.97
2018-04-24T05:11:15.573Z,5.70
2018-04-24T05:13:42.386Z,6.10
2018-04-24T05:16:09.178Z,7.00
2018-04-24T05:18:36.166Z,6.07
2018-04-24T05:21:03.080Z,6.37
2018-04-24T05:23:29.737Z,6.90
2018-04-24T05:25:56.341Z,6.43
2018-04-24T05:28:22.889Z,5.60
2018-04-24T05:30:49.471Z,6.50
2018-04-24T05:33:16.068Z,7.30
2018-04-24T05:35:43.029Z,6.33
2018-04-24T05:38:09.766Z,6.20
2018-04-24T05:40:36.437Z,6.93
2018-04-24T05:43:02.972Z,6.37
2018-04-24T05:45:29.965Z,6.90
2018-04-24T05:47:56.540Z,6.20
2018-04-24T05:50:23.097Z,6.53
2018-04-24T05:52:49.767Z,6.43
2018-04-24T05:55:16.745Z,6.90
2018-04-24T05:57:43.427Z,6.20
2018-04-24T06:00:10.123Z,6.30
2018-04-24T06:02:36.760Z,6.97
2018-04-24T06:05:03.319Z,5.60
2018-04-24T06:07:29.983Z,5.17
2018-04-24T06:09:56.945Z,5.93
2018-04-24T06:12:23.505Z,6.00
2018-04-24T06:14:50.085Z,5.33
2018-04-24T06:17:16.660Z,5.63
2018-04-24T06:19:43.251Z,5.17
2018-04-24T06:22:10.086Z,5.50
2018-04-24T06:24:36.752Z,5.83
2018-04-24T06:27:03.339Z,5.70
2018-04-24T06:29:29.980Z,4.87
2018-04-24T06:31:56.571Z,6.30
2018-04-24T06:34:23.535Z,6.37
2018-04-24T06:36:50.500Z,5.77
2018-04-24T06:39:17.452Z,5.83
2018-04-24T06:41:44.471Z,6.63
2018-04-24T06:44:11.291Z,5.43
2018-04-24T06:46:38.448Z,6.30
2018-04-24T06:49:05.037Z,6.13
2018-04-24T06:51:31.642Z,6.00
2018-04-24T06:53:58.278Z,5.70
2018-04-24T06:56:24.887Z,5.90
2018-04-24T06:58:51.529Z,6.23
2018-04-24T07:01:20.634Z,5.30
2018-04-24T07:03:47.197Z,5.00
2018-04-24T07:06:13.860Z,6.43
2018-04-24T07:08:41.024Z,5.17
2018-04-24T07:11:07.617Z,5.07
2018-04-24T07:13:34.240Z,6.50
2018-04-24T07:16:00.897Z,5.63
2018-04-24T07:18:27.441Z,6.23
2018-04-24T07:20:54.105Z,6.40
2018-04-24T07:23:20.719Z,5.97
2018-04-24T07:25:47.627Z,5.90
2018-04-24T07:28:14.266Z,5.60
2018-04-24T07:30:41.247Z,5.03
2018-04-24T07:33:08.297Z,5.70
2018-04-24T07:35:34.900Z,6.70
2018-04-24T07:38:01.844Z,6.47
2018-04-24T07:40:28.835Z,6.90
2018-04-24T07:42:55.457Z,5.90
2018-04-24T07:45:22.455Z,6.40
2018-04-24T07:47:48.993Z,6.67
2018-04-24T07:50:15.600Z,5.53
2018-04-24T07:52:42.428Z,5.90
2018-04-24T07:55:09.103Z,7.20
2018-04-24T07:57:36.113Z,5.90
2018-04-24T08:00:02.793Z,7.90
2018-04-24T08:02:29.404Z,6.50
2018-04-24T08:04:56.051Z,6.50
2018-04-24T08:07:22.632Z,6.93
2018-04-24T08:09:49.197Z,7.00
2018-04-24T08:12:15.836Z,7.70
2018-04-24T08:14:42.535Z,6.90
2018-04-24T08:17:09.205Z,6.87
2018-04-24T08:19:35.849Z,5.43
2018-04-24T08:22:02.462Z,5.97
2018-04-24T08:24:29.413Z,5.50
2018-04-24T08:26:56.013Z,6.83
2018-04-24T08:29:22.589Z,6.60
2018-04-24T08:31:49.137Z,6.20
2018-04-24T08:34:15.720Z,5.40
2018-04-24T08:36:42.554Z,5.90
2018-04-24T08:39:09.273Z,6.20
2018-04-24T08:41:35.885Z,6.60
2018-04-24T08:44:02.485Z,6.27
2018-04-24T08:46:29.044Z,5.70
2018-04-24T08:48:55.617Z,6.60
2018-04-24T08:51:22.560Z,5.83
2018-04-24T08:53:49.504Z,5.80
2018-04-24T08:56:16.134Z,5.37
2018-04-24T08:58:42.763Z,5.87
2018-04-24T09:01:09.417Z,6.27
2018-04-24T09:03:36.422Z,5.77
2018-04-24T09:06:03.420Z,7.23
2018-04-24T09:08:30.102Z,6.30
2018-04-24T09:10:56.653Z,6.53
2018-04-24T09:13:23.245Z,6.40
2018-04-24T09:15:49.803Z,5.93
2018-04-24T09:18:16.412Z,6.23
2018-04-24T09:20:43.070Z,5.70
2018-04-24T09:23:10.288Z,6.53
2018-04-24T09:25:36.900Z,5.50
2018-04-24T09:28:04.333Z,5.17
2018-04-24T09:30:30.892Z,5.93
2018-04-24T09:32:57.895Z,5.40
2018-04-24T09:35:28.162Z,5.07
2018-04-24T09:37:55.515Z,6.07
2018-04-24T09:40:22.177Z,5.70
2018-04-24T09:42:48.826Z,5.00
2018-04-24T09:45:15.445Z,5.33
2018-04-24T09:47:42.125Z,5.00
2018-04-24T09:50:08.876Z,5.27
2018-04-24T09:52:35.480Z,5.33
2018-04-24T09:55:02.135Z,4.77
2018-04-24T09:57:28.790Z,4.97
2018-04-24T09:59:55.351Z,4.30
2018-04-24T10:02:21.923Z,6.33
2018-04-24T10:04:48.504Z,5.13
2018-04-24T10:07:15.474Z,4.27
2018-04-24T10:09:42.573Z,3.80
2018-04-24T10:12:09.808Z,4.53
2018-04-24T10:14:36.514Z,3.93
2018-04-24T10:17:03.105Z,3.90
2018-04-24T10:19:29.785Z,3.03
2018-04-24T10:21:56.340Z,3.73
2018-04-24T10:24:22.929Z,4.20
2018-04-24T10:26:49.884Z,4.17
2018-04-24T10:29:16.785Z,4.50
2018-04-24T10:31:43.444Z,3.73
2018-04-24T10:34:10.198Z,4.00
2018-04-24T10:36:37.164Z,3.30
2018-04-24T10:39:05.715Z,3.40
2018-04-24T10:41:32.305Z,3.70
2018-04-24T10:43:58.937Z,3.17
2018-04-24T10:46:25.533Z,3.37
2018-04-24T10:48:52.476Z,3.10
2018-04-24T10:51:19.020Z,4.13
2018-04-24T10:53:45.627Z,3.83
2018-04-24T10:56:12.371Z,4.80
2018-04-24T10:58:39.067Z,4.03
2018-04-24T11:01:05.781Z,5.60
2018-04-24T11:03:32.360Z,3.80
2018-04-24T11:05:58.973Z,3.60
2018-04-24T11:08:25.572Z,3.40
2018-04-24T11:10:52.164Z,2.83
2018-04-24T11:13:18.720Z,3.80
2018-04-24T11:15:45.381Z,3.30
2018-04-24T11:18:12.145Z,4.03
2018-04-24T11:20:39.198Z,3.23
2018-04-24T11:23:05.884Z,3.33
2018-04-24T11:25:32.562Z,3.27
2018-04-24T11:27:59.180Z,3.10
2018-04-24T11:30:26.146Z,3.37
2018-04-24T11:32:53.117Z,4.00
2018-04-24T11:35:19.689Z,3.60
2018-04-24T11:37:46.272Z,2.73
2018-04-24T11:40:12.949Z,3.03
2018-04-24T11:42:39.986Z,3.20
2018-04-24T11:45:06.618Z,3.00
2018-04-24T11:47:33.244Z,3.03
2018-04-24T11:49:59.870Z,3.07
2018-04-24T11:52:26.831Z,3.27
2018-04-24T11:54:53.412Z,3.20
2018-04-24T11:57:20.100Z,2.83
2018-04-24T11:59:47.073Z,3.10
2018-04-24T12:02:14.065Z,2.70
2018-04-24T12:04:40.810Z,2.70
2018-04-24T12:07:07.487Z,3.13
2018-04-24T12:09:34.075Z,3.20
2018-04-24T12:12:00.993Z,3.50
2018-04-24T12:14:27.591Z,3.20
2018-04-24T12:16:54.258Z,3.37
2018-04-24T12:19:20.818Z,3.00
2018-04-24T12:21:47.399Z,3.33
2018-04-24T12:24:14.024Z,3.33
2018-04-24T12:26:40.710Z,2.83
2018-04-24T12:29:07.386Z,2.50
2018-04-24T12:31:33.986Z,4.00
2018-04-24T12:34:00.562Z,2.90
2018-04-24T12:36:27.549Z,2.90
2018-04-24T12:38:54.232Z,2.60
2018-04-24T12:41:21.102Z,2.80
2018-04-24T12:43:47.676Z,2.50
2018-04-24T12:46:14.326Z,2.90
2018-04-24T12:48:41.429Z,2.80
2018-04-24T12:51:08.112Z,3.40
2018-04-24T12:53:35.096Z,3.17
2018-04-24T12:56:02.067Z,2.83
2018-04-24T12:58:28.762Z,2.83
2018-04-24T13:00:55.341Z,3.53
2018-04-24T13:03:21.880Z,3.30
2018-04-24T13:05:48.463Z,3.27
2018-04-24T13:08:15.116Z,2.97
2018-04-24T13:10:41.785Z,2.93
2018-04-24T13:13:09.615Z,3.10
2018-04-24T13:15:36.445Z,2.80
2018-04-24T13:18:03.125Z,4.00
2018-04-24T13:20:30.072Z,3.93
2018-04-24T13:22:56.648Z,2.40
2018-04-24T13:25:23.214Z,2.67
2018-04-24T13:27:49.890Z,3.00
2018-04-24T13:30:16.569Z,2.63
2018-04-24T13:32:43.192Z,3.30
2018-04-24T13:35:09.961Z,2.67
2018-04-24T13:37:36.597Z,2.97
2018-04-24T13:40:03.237Z,2.77
2018-04-24T13:42:29.845Z,2.50
2018-04-24T13:44:56.801Z,3.07
2018-04-24T13:47:23.712Z,3.30
2018-04-24T13:49:50.305Z,3.33
2018-04-24T13:52:16.943Z,2.47
2018-04-24T13:54:43.557Z,3.03
2018-04-24T13:57:10.341Z,2.77
2018-04-24T13:59:36.981Z,3.20
2018-04-24T14:02:03.541Z,3.07
2018-04-24T14:04:30.505Z,2.60
2018-04-24T14:06:57.456Z,1.80
2018-04-24T14:09:24.380Z,3.00
2018-04-24T14:11:50.953Z,3.10
2018-04-24T14:14:17.964Z,1.87
2018-04-24T14:16:44.612Z,3.10
2018-04-24T14:19:11.305Z,2.83
2018-04-24T14:21:38.282Z,3.53
2018-04-24T14:24:04.954Z,2.70
2018-04-24T14:26:31.544Z,3.13
2018-04-24T14:28:58.126Z,2.80
2018-04-24T14:31:25.043Z,2.90
2018-04-24T14:33:51.625Z,2.40
2018-04-24T14:36:18.693Z,2.70
2018-04-24T14:38:45.284Z,3.27
2018-04-24T14:41:11.945Z,3.20
2018-04-24T14:43:38.621Z,2.67
2018-04-24T14:46:05.581Z,2.80
2018-04-24T14:48:32.565Z,3.03
2018-04-24T14:53:32.541Z,3.03
2018-04-24T14:55:59.147Z,2.27
2018-04-24T14:58:26.154Z,2.30
2018-04-24T15:00:52.716Z,3.30
2018-04-24T15:03:19.306Z,3.13
2018-04-24T15:05:46.281Z,2.50
2018-04-24T15:08:12.942Z,3.27
2018-04-24T15:10:39.657Z,3.50
2018-04-24T15:13:06.236Z,3.17
2018-04-24T15:15:32.880Z,5.27
2018-04-24T15:17:59.493Z,2.80
2018-04-24T15:20:26.419Z,2.50
2018-04-24T15:22:53.026Z,3.20
2018-04-24T15:25:19.648Z,2.23
2018-04-24T15:27:46.607Z,3.17
2018-04-24T15:30:13.655Z,2.70
2018-04-24T15:32:40.927Z,3.03
2018-04-24T15:35:07.556Z,2.53
2018-04-24T15:37:34.204Z,2.97
2018-04-24T15:40:00.874Z,2.80
2018-04-24T15:42:27.844Z,2.70
2018-04-24T15:44:54.437Z,3.03
2018-04-24T15:47:21.017Z,3.70
2018-04-24T15:49:47.561Z,2.63
2018-04-24T15:52:14.225Z,3.17
2018-04-24T15:54:41.380Z,5.20
2018-04-24T15:57:08.149Z,3.73
2018-04-24T15:59:34.829Z,3.70
2018-04-24T16:02:01.545Z,3.30
2018-04-24T16:04:28.172Z,2.33
2018-04-24T16:06:54.802Z,1.97
2018-04-24T16:09:21.401Z,3.00
2018-04-24T16:11:48.325Z,1.80
2018-04-24T16:14:14.956Z,3.20
2018-04-24T16:16:41.693Z,2.70
2018-04-24T16:19:08.581Z,3.07
2018-04-24T16:21:35.207Z,3.10
2018-04-24T16:24:01.860Z,2.77
2018-04-24T16:26:28.388Z,2.70
2018-04-24T16:28:54.991Z,3.13
2018-04-24T16:31:21.940Z,2.73
2018-04-24T16:33:48.600Z,3.10
2018-04-24T16:36:15.596Z,2.70
2018-04-24T16:38:42.289Z,2.83
2018-04-24T16:41:09.564Z,2.87
2018-04-24T16:43:36.413Z,2.53
2018-04-24T16:46:03.440Z,2.57
2018-04-24T16:48:30.089Z,2.20
2018-04-24T16:50:56.712Z,2.80
2018-04-24T16:53:23.361Z,2.13
2018-04-24T16:55:49.917Z,2.30
2018-04-24T16:58:16.521Z,2.60
2018-04-24T17:00:43.178Z,2.60
2018-04-24T17:03:09.873Z,2.60
2018-04-24T17:05:36.456Z,2.83
2018-04-24T17:08:03.070Z,3.10
2018-04-24T17:10:29.767Z,2.43
2018-04-24T17:12:56.736Z,2.40
2018-04-24T17:15:23.308Z,2.43
2018-04-24T17:17:49.872Z,2.70
2018-04-24T17:20:16.469Z,2.10
2018-04-24T17:22:43.116Z,2.80
2018-04-24T17:25:10.211Z,2.50
2018-04-24T17:27:37.285Z,2.47
2018-04-24T17:30:04.077Z,2.47
2018-04-24T17:32:30.650Z,2.73
2018-04-24T17:34:57.236Z,2.50
2018-04-24T17:37:24.196Z,2.17
2018-04-24T17:39:51.303Z,2.70
2018-04-24T17:42:17.912Z,2.70
2018-04-24T17:44:44.961Z,2.80
2018-04-24T17:47:12.017Z,2.93
2018-04-24T17:49:39.111Z,3.00
2018-04-24T17:52:06.197Z,2.90
2018-04-24T17:54:32.828Z,2.63
2018-04-24T17:56:59.465Z,2.37
2018-04-24T17:59:26.121Z,2.87
2018-04-24T18:01:52.743Z,2.70
2018-04-24T18:04:19.756Z,2.87
2018-04-24T18:06:46.447Z,3.20
2018-04-24T18:09:13.451Z,2.90
2018-04-24T18:11:40.302Z,3.43
2018-04-24T18:14:06.953Z,4.10
2018-04-24T18:16:33.651Z,4.27
2018-04-24T18:19:00.452Z,2.60
2018-04-24T18:21:27.154Z,2.73
2018-04-24T18:23:53.676Z,3.50
2018-04-24T18:26:20.260Z,3.60
2018-04-24T18:28:47.365Z,3.33
2018-04-24T18:31:14.040Z,4.87
2018-04-24T18:33:40.720Z,3.43
2018-04-24T18:36:07.380Z,3.47
2018-04-24T18:38:34.023Z,4.03
2018-04-24T18:41:01.838Z,5.53
2018-04-24T18:43:28.474Z,5.20
2018-04-24T18:45:55.072Z,4.67
2018-04-24T18:48:23.860Z,5.50
2018-04-24T18:50:50.526Z,6.80
2018-04-24T18:53:17.111Z,6.23
2018-04-24T18:55:44.101Z,7.57
2018-04-24T18:58:10.746Z,4.97
2018-04-24T19:00:38.451Z,4.20
2018-04-24T19:03:05.424Z,4.70
2018-04-24T19:05:32.385Z,4.80
2018-04-24T19:07:59.555Z,3.80
2018-04-24T19:10:26.248Z,3.60
2018-04-24T19:12:52.965Z,3.63
2018-04-24T19:15:19.635Z,3.23
2018-04-24T19:17:46.265Z,3.50
2018-04-24T19:20:14.113Z,3.40
2018-04-24T19:22:41.165Z,3.10
2018-04-24T19:25:13.873Z,3.40
2018-04-24T19:27:41.802Z,4.00
2018-04-24T19:30:08.555Z,3.30
2018-04-24T19:32:35.159Z,3.90
2018-04-24T19:35:02.772Z,3.60
2018-04-24T19:37:29.412Z,3.33
2018-04-24T19:40:02.041Z,3.57
2018-04-24T19:42:28.742Z,3.47
2018-04-24T19:44:55.313Z,3.20
2018-04-24T19:47:21.888Z,3.77
2018-04-24T19:49:54.581Z,3.83
2018-04-24T19:52:21.770Z,2.90
2018-04-24T19:54:54.661Z,3.63
2018-04-24T19:57:21.617Z,3.20
2018-04-24T19:59:48.525Z,3.10
2018-04-24T20:02:15.123Z,3.70
2018-04-24T20:04:42.745Z,3.50
2018-04-24T20:07:09.365Z,3.27
2018-04-24T20:09:36.004Z,3.10
2018-04-24T20:12:03.101Z,3.43
2018-04-24T20:14:30.820Z,3.13
2018-04-24T20:16:57.824Z,2.90
2018-04-24T20:19:24.868Z,4.43
2018-04-24T20:21:51.416Z,3.40
2018-04-24T20:24:18.136Z,3.47
2018-04-24T20:26:44.754Z,3.47
2018-04-24T20:29:12.365Z,3.23
2018-04-24T20:31:39.120Z,3.57
2018-04-24T20:34:07.151Z,3.93
2018-04-24T20:36:33.774Z,3.40
2018-04-24T20:39:00.373Z,4.30
2018-04-24T20:41:26.967Z,3.50
2018-04-24T20:43:53.540Z,3.50
2018-04-24T20:46:20.125Z,3.80
2018-04-24T20:48:46.718Z,3.60
2018-04-24T20:51:13.293Z,2.97
2018-04-24T20:53:40.040Z,3.63
2018-04-24T20:56:06.644Z,3.77
2018-04-24T20:58:33.243Z,3.63
2018-04-24T21:00:59.842Z,4.23
2018-04-24T21:03:26.433Z,3.53
2018-04-24T21:05:52.980Z,3.77
2018-04-24T21:08:19.589Z,3.47
2018-04-24T21:10:46.215Z,4.33
2018-04-24T21:13:13.283Z,3.63
2018-04-24T21:15:39.935Z,3.57
2018-04-24T21:18:06.537Z,3.90
2018-04-24T21:20:33.551Z,3.20
2018-04-24T21:23:00.260Z,3.27
2018-04-24T21:25:26.859Z,3.10
2018-04-24T21:27:53.474Z,3.67
2018-04-24T21:30:21.953Z,3.57
2018-04-24T21:32:48.984Z,4.00
2018-04-24T21:35:15.552Z,3.97
2018-04-24T21:37:42.182Z,3.80
2018-04-24T21:40:08.797Z,3.87
2018-04-24T21:42:35.369Z,3.50
2018-04-24T21:45:02.030Z,3.13
2018-04-24T21:47:28.620Z,4.10
2018-04-24T21:49:55.231Z,3.10
2018-04-24T21:52:21.781Z,3.37
2018-04-24T21:54:48.368Z,3.03
2018-04-24T21:57:15.370Z,2.90
2018-04-24T21:59:42.133Z,3.37
2018-04-24T22:02:08.877Z,3.23
2018-04-24T22:04:35.836Z,3.10
2018-04-24T22:07:02.410Z,2.97
2018-04-24T22:09:29.053Z,3.10
2018-04-24T22:11:55.608Z,3.73
2018-04-24T22:14:22.193Z,2.73
2018-04-24T22:16:49.132Z,4.10
2018-04-24T22:19:15.712Z,3.33
2018-04-24T22:21:42.413Z,2.87
2018-04-24T22:24:09.500Z,3.43
2018-04-24T22:26:36.065Z,3.77
2018-04-24T22:29:02.659Z,3.63
2018-04-24T22:31:29.309Z,3.80
2018-04-24T22:33:55.901Z,2.77
2018-04-24T22:36:22.794Z,3.20
2018-04-24T22:38:49.541Z,3.90
2018-04-24T22:41:16.182Z,3.70
2018-04-24T22:43:42.821Z,3.50
2018-04-24T22:46:09.448Z,3.30
2018-04-24T22:48:36.002Z,3.27
2018-04-24T22:51:02.581Z,3.20
2018-04-24T22:53:29.152Z,3.30
2018-04-24T22:55:56.251Z,3.40
2018-04-24T22:58:23.354Z,3.33
2018-04-24T23:00:50.863Z,2.30
2018-04-24T23:03:17.720Z,3.50
2018-04-24T23:05:44.560Z,3.47
2018-04-24T23:08:11.557Z,3.20
2018-04-24T23:10:50.668Z,2.90
2018-04-24T23:13:29.592Z,3.20
2018-04-24T23:16:08.819Z,3.50
2018-04-24T23:18:47.767Z,3.37
2018-04-24T23:21:14.321Z,3.63
2018-04-24T23:23:41.247Z,3.80
2018-04-24T23:26:08.166Z,3.83
2018-04-24T23:28:35.039Z,3.30
2018-04-24T23:31:01.917Z,2.97
2018-04-24T23:33:28.726Z,3.07
2018-04-24T23:35:55.651Z,3.37
2018-04-24T23:38:23.039Z,3.47
2018-04-24T23:40:50.376Z,3.20
2018-04-24T23:43:17.255Z,3.70
2018-04-24T23:45:43.933Z,3.47
2018-04-24T23:48:11.007Z,3.70
2018-04-24T23:50:37.641Z,3.53
2018-04-24T23:53:04.248Z,3.97
2018-04-24T23:55:31.169Z,3.07
2018-04-24T23:57:57.812Z,3.60
